sensor_id;sensor_type;location;lat;lon;timestamp;pressure;altitude;pressure_sealevel;temperature;humidity
7407;BME280;3745;56.964;24.128;2023-04-05T00:01:27;101905.31;;;1.85;100.00
7407;BME280;3745;56.964;24.128;2023-04-05T00:03:55;101913.19;;;1.91;100.00
7407;BME280;3745;56.964;24.128;2023-04-05T00:06:25;101854.38;;;1.56;100.00
7407;BME280;3745;56.964;24.128;2023-04-05T00:08:55;101900.44;;;1.86;100.00
7407;BME280;3745;56.964;24.128;2023-04-05T00:11:22;101884.53;;;1.73;100.00
7407;BME280;3745;56.964;24.128;2023-04-05T00:13:48;101855.72;;;1.64;100.00
7407;BME280;3745;56.964;24.128;2023-04-05T00:16:15;101902.06;;;1.86;100.00
7407;BME280;3745;56.964;24.128;2023-04-05T00:18:41;101789.03;;;1.24;100.00
7407;BME280;3745;56.964;24.128;2023-04-05T00:21:15;101878.38;;;1.68;100.00
7407;BME280;3745;56.964;24.128;2023-04-05T00:23:41;101849.19;;;1.53;100.00
7407;BME280;3745;56.964;24.128;2023-04-05T00:26:10;101903.22;;;1.91;100.00
7407;BME280;3745;56.964;24.128;2023-04-05T00:28:36;101818.03;;;1.35;100.00
7407;BME280;3745;56.964;24.128;2023-04-05T00:31:03;101902.41;;;1.79;100.00
7407;BME280;3745;56.964;24.128;2023-04-05T00:33:29;101824.41;;;1.43;100.00
7407;BME280;3745;56.964;24.128;2023-04-05T00:35:54;101901.09;;;1.84;100.00
7407;BME280;3745;56.964;24.128;2023-04-05T00:38:20;101904.53;;;1.86;100.00
7407;BME280;3745;56.964;24.128;2023-04-05T00:40:46;101868.63;;;1.71;100.00
7407;BME280;3745;56.964;24.128;2023-04-05T00:43:12;101869.00;;;1.77;100.00
7407;BME280;3745;56.964;24.128;2023-04-05T00:45:37;101832.28;;;1.49;100.00
7407;BME280;3745;56.964;24.128;2023-04-05T00:48:04;101896.31;;;1.87;100.00
7407;BME280;3745;56.964;24.128;2023-04-05T00:50:30;101890.44;;;1.86;100.00
7407;BME280;3745;56.964;24.128;2023-04-05T00:52:56;101856.50;;;1.63;100.00
7407;BME280;3745;56.964;24.128;2023-04-05T00:55:24;101901.28;;;1.87;100.00
7407;BME280;3745;56.964;24.128;2023-04-05T00:57:52;101882.25;;;1.76;100.00
7407;BME280;3745;56.964;24.128;2023-04-05T01:00:20;101803.09;;;1.35;100.00
7407;BME280;3745;56.964;24.128;2023-04-05T01:03:01;101891.13;;;1.84;100.00
7407;BME280;3745;56.964;24.128;2023-04-05T01:05:39;101890.25;;;1.83;100.00
7407;BME280;3745;56.964;24.128;2023-04-05T01:08:33;101870.75;;;1.78;100.00
7407;BME280;3745;56.964;24.128;2023-04-05T01:11:03;101829.88;;;1.51;100.00
7407;BME280;3745;56.964;24.128;2023-04-05T01:13:31;101852.84;;;1.58;100.00
7407;BME280;3745;56.964;24.128;2023-04-05T01:15:57;101880.00;;;1.92;100.00
7407;BME280;3745;56.964;24.128;2023-04-05T01:18:24;101869.81;;;1.89;100.00
7407;BME280;3745;56.964;24.128;2023-04-05T01:21:04;101746.03;;;1.15;100.00
7407;BME280;3745;56.964;24.128;2023-04-05T01:26:48;101843.06;;;1.61;100.00
7407;BME280;3745;56.964;24.128;2023-04-05T01:29:42;101881.34;;;1.87;100.00
7407;BME280;3745;56.964;24.128;2023-04-05T01:35:38;101800.00;;;1.39;100.00
7407;BME280;3745;56.964;24.128;2023-04-05T01:38:04;101864.63;;;1.86;100.00
7407;BME280;3745;56.964;24.128;2023-04-05T01:40:34;101844.81;;;1.62;100.00
7407;BME280;3745;56.964;24.128;2023-04-05T01:43:00;101813.88;;;1.47;100.00
7407;BME280;3745;56.964;24.128;2023-04-05T01:45:27;101761.56;;;1.11;100.00
7407;BME280;3745;56.964;24.128;2023-04-05T01:47:52;101882.09;;;1.86;100.00
7407;BME280;3745;56.964;24.128;2023-04-05T01:50:18;101819.06;;;1.50;100.00
7407;BME280;3745;56.964;24.128;2023-04-05T01:52:44;101889.56;;;1.86;100.00
7407;BME280;3745;56.964;24.128;2023-04-05T01:55:09;101770.28;;;1.29;100.00
7407;BME280;3745;56.964;24.128;2023-04-05T01:57:36;101814.47;;;1.56;100.00
7407;BME280;3745;56.964;24.128;2023-04-05T02:00:02;101839.03;;;1.63;100.00
7407;BME280;3745;56.964;24.128;2023-04-05T02:02:28;101750.94;;;1.14;100.00
7407;BME280;3745;56.964;24.128;2023-04-05T02:04:54;101863.94;;;1.88;100.00
7407;BME280;3745;56.964;24.128;2023-04-05T02:07:20;101839.06;;;1.77;100.00
7407;BME280;3745;56.964;24.128;2023-04-05T02:09:45;101869.06;;;1.90;100.00
7407;BME280;3745;56.964;24.128;2023-04-05T02:12:11;101835.63;;;1.75;100.00
7407;BME280;3745;56.964;24.128;2023-04-05T02:14:37;101843.59;;;1.82;100.00
7407;BME280;3745;56.964;24.128;2023-04-05T02:17:02;101882.81;;;1.96;100.00
7407;BME280;3745;56.964;24.128;2023-04-05T02:19:28;101809.69;;;1.59;100.00
7407;BME280;3745;56.964;24.128;2023-04-05T02:21:55;101682.25;;;0.68;100.00
7407;BME280;3745;56.964;24.128;2023-04-05T02:24:21;101882.84;;;1.85;100.00
7407;BME280;3745;56.964;24.128;2023-04-05T02:26:47;101643.59;;;0.36;100.00
7407;BME280;3745;56.964;24.128;2023-04-05T02:29:13;101817.13;;;1.46;100.00
7407;BME280;3745;56.964;24.128;2023-04-05T02:31:38;101873.06;;;1.88;100.00
7407;BME280;3745;56.964;24.128;2023-04-05T02:34:04;101830.22;;;1.69;100.00
7407;BME280;3745;56.964;24.128;2023-04-05T02:36:33;101837.13;;;1.73;100.00
7407;BME280;3745;56.964;24.128;2023-04-05T02:38:59;101808.97;;;1.49;100.00
7407;BME280;3745;56.964;24.128;2023-04-05T02:41:24;101872.47;;;1.79;100.00
7407;BME280;3745;56.964;24.128;2023-04-05T02:43:53;101865.78;;;1.91;100.00
7407;BME280;3745;56.964;24.128;2023-04-05T02:46:19;101697.53;;;0.85;100.00
7407;BME280;3745;56.964;24.128;2023-04-05T02:48:44;101797.16;;;1.46;100.00
7407;BME280;3745;56.964;24.128;2023-04-05T02:51:11;101846.16;;;1.71;100.00
7407;BME280;3745;56.964;24.128;2023-04-05T02:53:36;101774.66;;;1.33;100.00
7407;BME280;3745;56.964;24.128;2023-04-05T02:56:02;101767.53;;;1.26;100.00
7407;BME280;3745;56.964;24.128;2023-04-05T02:58:28;101848.84;;;1.74;100.00
7407;BME280;3745;56.964;24.128;2023-04-05T03:00:53;101846.91;;;1.70;100.00
7407;BME280;3745;56.964;24.128;2023-04-05T03:03:20;101851.53;;;1.77;100.00
7407;BME280;3745;56.964;24.128;2023-04-05T03:05:46;101810.59;;;1.48;100.00
7407;BME280;3745;56.964;24.128;2023-04-05T03:08:15;101865.22;;;1.95;100.00
7407;BME280;3745;56.964;24.128;2023-04-05T03:10:45;101692.81;;;0.77;100.00
7407;BME280;3745;56.964;24.128;2023-04-05T03:13:10;101606.53;;;0.16;100.00
7407;BME280;3745;56.964;24.128;2023-04-05T03:15:36;101695.47;;;0.67;100.00
7407;BME280;3745;56.964;24.128;2023-04-05T03:18:01;101867.66;;;1.82;100.00
7407;BME280;3745;56.964;24.128;2023-04-05T03:20:27;101788.97;;;1.36;100.00
7407;BME280;3745;56.964;24.128;2023-04-05T03:22:53;101871.16;;;1.84;100.00
7407;BME280;3745;56.964;24.128;2023-04-05T03:25:18;101794.16;;;1.39;100.00
7407;BME280;3745;56.964;24.128;2023-04-05T03:27:44;101750.69;;;1.22;100.00
7407;BME280;3745;56.964;24.128;2023-04-05T03:30:13;101862.69;;;1.82;100.00
7407;BME280;3745;56.964;24.128;2023-04-05T03:32:39;101860.97;;;1.81;100.00
7407;BME280;3745;56.964;24.128;2023-04-05T03:35:04;101701.13;;;0.89;100.00
7407;BME280;3745;56.964;24.128;2023-04-05T03:37:30;101790.72;;;1.37;100.00
7407;BME280;3745;56.964;24.128;2023-04-05T03:39:56;101814.47;;;1.56;100.00
7407;BME280;3745;56.964;24.128;2023-04-05T03:42:21;101872.66;;;1.82;100.00
7407;BME280;3745;56.964;24.128;2023-04-05T03:44:51;101785.88;;;1.27;100.00
7407;BME280;3745;56.964;24.128;2023-04-05T03:47:19;101826.56;;;1.63;100.00
7407;BME280;3745;56.964;24.128;2023-04-05T03:49:45;101730.63;;;0.96;100.00
7407;BME280;3745;56.964;24.128;2023-04-05T03:52:10;101662.34;;;0.68;100.00
7407;BME280;3745;56.964;24.128;2023-04-05T03:54:36;101704.41;;;1.01;100.00
7407;BME280;3745;56.964;24.128;2023-04-05T03:57:02;101864.63;;;1.86;100.00
7407;BME280;3745;56.964;24.128;2023-04-05T03:59:28;101794.31;;;1.53;100.00
7407;BME280;3745;56.964;24.128;2023-04-05T04:01:53;101860.31;;;1.83;100.00
7407;BME280;3745;56.964;24.128;2023-04-05T04:04:19;101746.28;;;1.31;100.00
7407;BME280;3745;56.964;24.128;2023-04-05T04:06:45;101806.78;;;1.67;100.00
7407;BME280;3745;56.964;24.128;2023-04-05T04:09:11;101830.00;;;1.90;100.00
7407;BME280;3745;56.964;24.128;2023-04-05T04:11:36;101869.50;;;2.09;100.00
7407;BME280;3745;56.964;24.128;2023-04-05T04:14:02;101862.34;;;2.02;100.00
7407;BME280;3745;56.964;24.128;2023-04-05T04:16:27;101858.72;;;1.97;100.00
7407;BME280;3745;56.964;24.128;2023-04-05T04:18:53;101775.06;;;1.39;100.00
7407;BME280;3745;56.964;24.128;2023-04-05T04:21:19;101863.50;;;1.94;100.00
7407;BME280;3745;56.964;24.128;2023-04-05T04:23:50;101865.59;;;2.01;100.00
7407;BME280;3745;56.964;24.128;2023-04-05T04:26:16;101815.66;;;1.75;100.00
7407;BME280;3745;56.964;24.128;2023-04-05T04:28:52;101867.16;;;1.99;100.00
7407;BME280;3745;56.964;24.128;2023-04-05T04:31:18;101825.28;;;1.95;100.00
7407;BME280;3745;56.964;24.128;2023-04-05T04:33:48;101871.31;;;2.25;100.00
7407;BME280;3745;56.964;24.128;2023-04-05T04:36:14;101869.13;;;2.29;100.00
7407;BME280;3745;56.964;24.128;2023-04-05T04:38:42;101738.50;;;1.64;100.00
7407;BME280;3745;56.964;24.128;2023-04-05T04:41:12;101795.91;;;2.04;100.00
7407;BME280;3745;56.964;24.128;2023-04-05T04:43:38;101757.25;;;1.84;100.00
7407;BME280;3745;56.964;24.128;2023-04-05T04:46:09;101782.47;;;2.02;100.00
7407;BME280;3745;56.964;24.128;2023-04-05T04:48:40;101757.44;;;1.87;100.00
7407;BME280;3745;56.964;24.128;2023-04-05T04:51:07;101869.78;;;2.53;100.00
7407;BME280;3745;56.964;24.128;2023-04-05T04:53:32;101764.97;;;1.76;100.00
7407;BME280;3745;56.964;24.128;2023-04-05T04:55:58;101867.56;;;2.31;100.00
7407;BME280;3745;56.964;24.128;2023-04-05T04:58:24;101848.94;;;2.26;100.00
7407;BME280;3745;56.964;24.128;2023-04-05T05:00:49;101800.91;;;2.04;100.00
7407;BME280;3745;56.964;24.128;2023-04-05T05:03:17;101875.06;;;2.44;100.00
7407;BME280;3745;56.964;24.128;2023-04-05T05:05:48;101869.00;;;2.41;100.00
7407;BME280;3745;56.964;24.128;2023-04-05T05:08:14;101829.53;;;2.22;100.00
7407;BME280;3745;56.964;24.128;2023-04-05T05:10:40;101879.09;;;2.55;100.00
7407;BME280;3745;56.964;24.128;2023-04-05T05:13:06;101881.03;;;2.59;100.00
7407;BME280;3745;56.964;24.128;2023-04-05T05:15:31;101878.53;;;2.72;100.00
7407;BME280;3745;56.964;24.128;2023-04-05T05:17:57;101823.78;;;2.36;100.00
7407;BME280;3745;56.964;24.128;2023-04-05T05:20:24;101816.09;;;2.33;100.00
7407;BME280;3745;56.964;24.128;2023-04-05T05:22:51;101886.59;;;2.68;100.00
7407;BME280;3745;56.964;24.128;2023-04-05T05:25:17;101882.28;;;2.66;100.00
7407;BME280;3745;56.964;24.128;2023-04-05T05:27:43;101893.81;;;2.64;100.00
7407;BME280;3745;56.964;24.128;2023-04-05T05:30:09;101886.78;;;2.71;100.00
7407;BME280;3745;56.964;24.128;2023-04-05T05:32:35;101897.53;;;2.84;100.00
7407;BME280;3745;56.964;24.128;2023-04-05T05:35:01;101886.78;;;2.71;100.00
7407;BME280;3745;56.964;24.128;2023-04-05T05:37:31;101752.69;;;1.79;100.00
7407;BME280;3745;56.964;24.128;2023-04-05T05:39:57;101727.56;;;1.76;100.00
7407;BME280;3745;56.964;24.128;2023-04-05T05:42:26;101884.00;;;2.67;100.00
7407;BME280;3745;56.964;24.128;2023-04-05T05:44:58;101867.59;;;2.70;100.00
7407;BME280;3745;56.964;24.128;2023-04-05T05:47:24;101669.63;;;1.53;100.00
7407;BME280;3745;56.964;24.128;2023-04-05T05:49:53;101615.88;;;1.19;100.00
7407;BME280;3745;56.964;24.128;2023-04-05T05:52:18;101872.97;;;2.77;100.00
7407;BME280;3745;56.964;24.128;2023-04-05T05:54:44;101896.59;;;2.95;100.00
7407;BME280;3745;56.964;24.128;2023-04-05T05:57:09;101838.16;;;2.66;100.00
7407;BME280;3745;56.964;24.128;2023-04-05T05:59:37;101781.69;;;2.42;100.00
7407;BME280;3745;56.964;24.128;2023-04-05T06:02:03;101842.16;;;2.91;100.00
7407;BME280;3745;56.964;24.128;2023-04-05T06:04:31;101721.03;;;2.04;100.00
7407;BME280;3745;56.964;24.128;2023-04-05T06:06:59;101853.72;;;2.89;100.00
7407;BME280;3745;56.964;24.128;2023-04-05T06:09:26;101863.28;;;2.96;100.00
7407;BME280;3745;56.964;24.128;2023-04-05T06:11:53;101903.81;;;3.31;100.00
7407;BME280;3745;56.964;24.128;2023-04-05T06:14:19;101872.69;;;3.13;100.00
7407;BME280;3745;56.964;24.128;2023-04-05T06:16:44;101913.81;;;3.31;100.00
7407;BME280;3745;56.964;24.128;2023-04-05T06:19:10;101776.72;;;2.42;100.00
7407;BME280;3745;56.964;24.128;2023-04-05T06:21:36;101846.09;;;3.00;100.00
7407;BME280;3745;56.964;24.128;2023-04-05T06:24:02;101879.47;;;2.88;100.00
7407;BME280;3745;56.964;24.128;2023-04-05T06:26:27;101908.06;;;3.19;100.00
7407;BME280;3745;56.964;24.128;2023-04-05T06:28:57;101917.41;;;3.21;100.00
7407;BME280;3745;56.964;24.128;2023-04-05T06:31:30;101876.31;;;3.18;100.00
7407;BME280;3745;56.964;24.128;2023-04-05T06:33:56;101890.34;;;3.29;100.00
7407;BME280;3745;56.964;24.128;2023-04-05T06:36:21;101911.00;;;3.40;100.00
7407;BME280;3745;56.964;24.128;2023-04-05T06:38:47;101903.16;;;3.48;100.00
7407;BME280;3745;56.964;24.128;2023-04-05T06:41:15;101671.09;;;2.04;100.00
7407;BME280;3745;56.964;24.128;2023-04-05T06:43:41;101908.06;;;3.19;100.00
7407;BME280;3745;56.964;24.128;2023-04-05T06:46:07;101903.22;;;3.35;100.00
7407;BME280;3745;56.964;24.128;2023-04-05T06:48:35;101799.66;;;2.91;100.00
7407;BME280;3745;56.964;24.128;2023-04-05T06:51:02;101897.63;;;3.39;100.00
7407;BME280;3745;56.964;24.128;2023-04-05T06:53:28;101899.16;;;3.37;100.00
7407;BME280;3745;56.964;24.128;2023-04-05T06:55:55;101767.00;;;2.74;100.00
7407;BME280;3745;56.964;24.128;2023-04-05T06:58:21;101764.84;;;2.94;100.00
7407;BME280;3745;56.964;24.128;2023-04-05T07:00:48;101903.84;;;3.73;100.00
7407;BME280;3745;56.964;24.128;2023-04-05T07:03:13;101842.13;;;3.59;100.00
7407;BME280;3745;56.964;24.128;2023-04-05T07:05:39;101897.56;;;3.95;100.00
7407;BME280;3745;56.964;24.128;2023-04-05T07:08:05;101861.78;;;3.53;100.00
7407;BME280;3745;56.964;24.128;2023-04-05T07:10:30;101918.69;;;3.70;100.00
7407;BME280;3745;56.964;24.128;2023-04-05T07:12:56;101892.19;;;3.74;100.00
7407;BME280;3745;56.964;24.128;2023-04-05T07:15:22;101923.63;;;3.69;100.00
7407;BME280;3745;56.964;24.128;2023-04-05T07:17:47;101925.66;;;3.61;100.00
7407;BME280;3745;56.964;24.128;2023-04-05T07:20:13;101897.25;;;3.33;100.00
7407;BME280;3745;56.964;24.128;2023-04-05T07:22:40;101910.78;;;3.50;100.00
7407;BME280;3745;56.964;24.128;2023-04-05T07:25:06;101839.41;;;3.14;100.00
7407;BME280;3745;56.964;24.128;2023-04-05T07:27:33;101880.34;;;3.29;100.00
7407;BME280;3745;56.964;24.128;2023-04-05T07:29:59;101940.66;;;3.61;100.00
7407;BME280;3745;56.964;24.128;2023-04-05T07:32:25;101912.41;;;3.21;100.00
7407;BME280;3745;56.964;24.128;2023-04-05T07:34:50;101855.03;;;2.97;100.00
7407;BME280;3745;56.964;24.128;2023-04-05T07:37:16;101952.28;;;3.33;100.00
7407;BME280;3745;56.964;24.128;2023-04-05T07:39:41;101923.09;;;3.19;100.00
7407;BME280;3745;56.964;24.128;2023-04-05T07:42:07;101957.22;;;3.18;100.00
7407;BME280;3745;56.964;24.128;2023-04-05T07:44:32;101933.28;;;3.22;100.00
7407;BME280;3745;56.964;24.128;2023-04-05T07:47:01;101963.28;;;3.22;100.00
7407;BME280;3745;56.964;24.128;2023-04-05T07:49:28;101965.97;;;3.25;100.00
7407;BME280;3745;56.964;24.128;2023-04-05T07:51:58;101931.91;;;3.27;100.00
7407;BME280;3745;56.964;24.128;2023-04-05T07:54:23;101970.59;;;3.32;100.00
7407;BME280;3745;56.964;24.128;2023-04-05T07:56:50;101970.34;;;3.42;100.00
7407;BME280;3745;56.964;24.128;2023-04-05T07:59:16;101943.91;;;3.33;100.00
7407;BME280;3745;56.964;24.128;2023-04-05T08:01:45;101970.69;;;3.61;100.00
7407;BME280;3745;56.964;24.128;2023-04-05T08:04:13;101974.44;;;3.96;100.00
7407;BME280;3745;56.964;24.128;2023-04-05T08:06:39;101968.13;;;3.88;100.00
7407;BME280;3745;56.964;24.128;2023-04-05T08:09:05;101972.22;;;4.15;100.00
7407;BME280;3745;56.964;24.128;2023-04-05T08:11:33;101777.34;;;2.94;100.00
7407;BME280;3745;56.964;24.128;2023-04-05T08:14:02;101881.88;;;3.27;100.00
7407;BME280;3745;56.964;24.128;2023-04-05T08:16:28;101954.13;;;3.63;100.00
7407;BME280;3745;56.964;24.128;2023-04-05T08:18:53;101980.13;;;3.93;100.00
7407;BME280;3745;56.964;24.128;2023-04-05T08:21:19;101772.47;;;2.54;100.00
7407;BME280;3745;56.964;24.128;2023-04-05T08:23:44;101995.69;;;3.20;100.00
7407;BME280;3745;56.964;24.128;2023-04-05T08:26:10;101919.47;;;2.48;100.00
7407;BME280;3745;56.964;24.128;2023-04-05T08:28:36;101966.00;;;2.86;100.00
7407;BME280;3745;56.964;24.128;2023-04-05T08:31:01;101993.28;;;3.22;100.00
7407;BME280;3745;56.964;24.128;2023-04-05T08:33:27;101944.03;;;3.08;100.00
7407;BME280;3745;56.964;24.128;2023-04-05T08:36:16;101998.88;;;3.72;100.00
7407;BME280;3745;56.964;24.128;2023-04-05T08:38:41;102007.75;;;3.95;100.00
7407;BME280;3745;56.964;24.128;2023-04-05T08:41:22;102002.63;;;4.21;100.00
7407;BME280;3745;56.964;24.128;2023-04-05T08:43:55;101975.66;;;4.17;100.00
7407;BME280;3745;56.964;24.128;2023-04-05T08:46:22;101953.00;;;4.01;100.00
7407;BME280;3745;56.964;24.128;2023-04-05T08:48:48;102007.56;;;4.34;100.00
7407;BME280;3745;56.964;24.128;2023-04-05T08:51:21;101941.28;;;4.00;100.00
7407;BME280;3745;56.964;24.128;2023-04-05T08:53:47;102016.34;;;4.55;100.00
7407;BME280;3745;56.964;24.128;2023-04-05T08:56:20;101983.66;;;4.39;100.00
7407;BME280;3745;56.964;24.128;2023-04-05T08:59:09;102012.34;;;4.59;100.00
7407;BME280;3745;56.964;24.128;2023-04-05T09:01:44;102025.59;;;4.14;100.00
7407;BME280;3745;56.964;24.128;2023-04-05T09:04:21;102025.97;;;4.49;100.00
7407;BME280;3745;56.964;24.128;2023-04-05T09:06:51;102021.16;;;4.81;100.00
7407;BME280;3745;56.964;24.128;2023-04-05T09:09:21;101992.63;;;4.50;100.00
7407;BME280;3745;56.964;24.128;2023-04-05T09:11:47;101968.41;;;4.07;100.00
7407;BME280;3745;56.964;24.128;2023-04-05T09:14:13;102031.00;;;4.49;100.00
7407;BME280;3745;56.964;24.128;2023-04-05T09:16:40;102028.41;;;4.48;100.00
7407;BME280;3745;56.964;24.128;2023-04-05T09:19:07;102036.28;;;4.39;100.00
7407;BME280;3745;56.964;24.128;2023-04-05T09:22:05;101999.78;;;4.15;100.00
7407;BME280;3745;56.964;24.128;2023-04-05T09:27:11;102006.97;;;4.38;100.00
7407;BME280;3745;56.964;24.128;2023-04-05T09:29:39;102005.56;;;4.14;100.00
7407;BME280;3745;56.964;24.128;2023-04-05T09:32:07;102007.00;;;3.82;100.00
7407;BME280;3745;56.964;24.128;2023-04-05T09:34:34;102006.13;;;4.10;100.00
7407;BME280;3745;56.964;24.128;2023-04-05T09:37:23;102057.31;;;4.70;100.00
7407;BME280;3745;56.964;24.128;2023-04-05T09:39:49;102048.31;;;4.88;100.00
7407;BME280;3745;56.964;24.128;2023-04-05T09:42:17;102063.16;;;5.15;100.00
7407;BME280;3745;56.964;24.128;2023-04-05T09:45:00;102060.06;;;4.89;100.00
7407;BME280;3745;56.964;24.128;2023-04-05T09:47:34;102059.75;;;4.98;100.00
7407;BME280;3745;56.964;24.128;2023-04-05T09:50:01;102034.41;;;4.64;100.00
7407;BME280;3745;56.964;24.128;2023-04-05T09:52:30;102073.25;;;4.43;100.00
7407;BME280;3745;56.964;24.128;2023-04-05T09:54:59;101988.19;;;3.74;100.00
7407;BME280;3745;56.964;24.128;2023-04-05T09:57:26;102071.00;;;4.33;100.00
7407;BME280;3745;56.964;24.128;2023-04-05T09:59:53;102080.47;;;4.66;100.00
7407;BME280;3745;56.964;24.128;2023-04-05T10:02:20;102087.59;;;4.73;100.00
7407;BME280;3745;56.964;24.128;2023-04-05T10:04:47;102074.25;;;5.04;100.00
7407;BME280;3745;56.964;24.128;2023-04-05T10:07:15;102078.38;;;5.18;100.00
7407;BME280;3745;56.964;24.128;2023-04-05T10:09:42;102087.06;;;5.23;100.00
7407;BME280;3745;56.964;24.128;2023-04-05T10:12:09;102080.97;;;5.05;100.00
7407;BME280;3745;56.964;24.128;2023-04-05T10:14:38;102090.31;;;4.92;100.00
7407;BME280;3745;56.964;24.128;2023-04-05T10:17:10;102081.31;;;5.11;100.00
7407;BME280;3745;56.964;24.128;2023-04-05T10:19:54;102098.81;;;5.09;100.00
7407;BME280;3745;56.964;24.128;2023-04-05T10:23:05;102083.91;;;5.27;100.00
7407;BME280;3745;56.964;24.128;2023-04-05T10:25:37;102103.13;;;5.12;100.00
7407;BME280;3745;56.964;24.128;2023-04-05T10:28:10;102071.91;;;4.63;100.00
7407;BME280;3745;56.964;24.128;2023-04-05T10:30:39;102103.31;;;4.85;100.00
7407;BME280;3745;56.964;24.128;2023-04-05T10:33:34;102113.31;;;4.71;100.00
7407;BME280;3745;56.964;24.128;2023-04-05T10:39:02;102107.09;;;4.64;100.00
7407;BME280;3745;56.964;24.128;2023-04-05T10:41:35;102107.81;;;4.91;100.00
7407;BME280;3745;56.964;24.128;2023-04-05T10:44:04;102086.13;;;4.91;100.00
7407;BME280;3745;56.964;24.128;2023-04-05T10:46:30;102074.44;;;5.07;100.00
7407;BME280;3745;56.964;24.128;2023-04-05T10:49:21;102123.38;;;5.15;100.00
7407;BME280;3745;56.964;24.128;2023-04-05T10:51:51;102039.13;;;4.60;100.00
7407;BME280;3745;56.964;24.128;2023-04-05T10:54:18;102122.34;;;5.26;100.00
7407;BME280;3745;56.964;24.128;2023-04-05T10:56:45;102088.44;;;5.18;100.00
7407;BME280;3745;56.964;24.128;2023-04-05T10:59:12;102128.06;;;5.38;100.00
7407;BME280;3745;56.964;24.128;2023-04-05T11:01:38;102094.59;;;5.23;100.00
7407;BME280;3745;56.964;24.128;2023-04-05T11:04:23;102110.19;;;5.48;100.00
7407;BME280;3745;56.964;24.128;2023-04-05T11:09:34;102132.31;;;5.84;100.00
7407;BME280;3745;56.964;24.128;2023-04-05T11:12:00;102117.44;;;5.58;100.00
7407;BME280;3745;56.964;24.128;2023-04-05T11:14:38;102137.94;;;5.35;100.00
7407;BME280;3745;56.964;24.128;2023-04-05T11:17:23;102135.00;;;5.13;100.00
7407;BME280;3745;56.964;24.128;2023-04-05T11:19:49;102138.59;;;5.47;100.00
7407;BME280;3745;56.964;24.128;2023-04-05T11:22:27;102141.50;;;5.69;100.00
7407;BME280;3745;56.964;24.128;2023-04-05T11:24:54;102140.47;;;5.51;100.00
7407;BME280;3745;56.964;24.128;2023-04-05T11:27:35;102116.63;;;5.43;100.00
7407;BME280;3745;56.964;24.128;2023-04-05T11:30:03;102021.47;;;4.29;100.00
7407;BME280;3745;56.964;24.128;2023-04-05T11:32:43;102143.88;;;4.78;100.00
7407;BME280;3745;56.964;24.128;2023-04-05T11:35:16;102143.59;;;4.74;100.00
7407;BME280;3745;56.964;24.128;2023-04-05T11:40:28;102140.81;;;4.69;100.00
7407;BME280;3745;56.964;24.128;2023-04-05T11:43:08;102141.19;;;5.05;100.00
7407;BME280;3745;56.964;24.128;2023-04-05T11:45:36;102149.78;;;4.51;100.00
7407;BME280;3745;56.964;24.128;2023-04-05T11:48:07;102072.59;;;4.18;100.00
7407;BME280;3745;56.964;24.128;2023-04-05T11:50:34;102095.41;;;4.65;100.00
7407;BME280;3745;56.964;24.128;2023-04-05T11:55:38;102135.16;;;5.16;100.00
7407;BME280;3745;56.964;24.128;2023-04-05T11:58:30;102116.19;;;5.21;100.00
7407;BME280;3745;56.964;24.128;2023-04-05T12:00:58;102133.56;;;5.32;100.00
7407;BME280;3745;56.964;24.128;2023-04-05T12:03:25;102138.78;;;5.50;100.00
7407;BME280;3745;56.964;24.128;2023-04-05T12:05:54;102111.84;;;5.33;100.00
7407;BME280;3745;56.964;24.128;2023-04-05T12:08:21;102134.75;;;5.68;100.00
7407;BME280;3745;56.964;24.128;2023-04-05T12:10:59;102133.75;;;5.50;100.00
7407;BME280;3745;56.964;24.128;2023-04-05T12:13:29;102095.50;;;5.39;100.00
7407;BME280;3745;56.964;24.128;2023-04-05T12:15:59;102101.13;;;5.50;100.00
7407;BME280;3745;56.964;24.128;2023-04-05T12:18:27;102113.41;;;5.76;100.00
7407;BME280;3745;56.964;24.128;2023-04-05T12:20:54;102113.38;;;6.06;100.00
7407;BME280;3745;56.964;24.128;2023-04-05T12:23:23;101960.16;;;5.28;100.00
7407;BME280;3745;56.964;24.128;2023-04-05T12:25:50;102136.94;;;6.40;100.00
7407;BME280;3745;56.964;24.128;2023-04-05T12:28:16;102137.69;;;5.90;100.00
7407;BME280;3745;56.964;24.128;2023-04-05T12:30:55;102136.53;;;5.40;100.00
7407;BME280;3745;56.964;24.128;2023-04-05T12:33:31;102142.97;;;5.80;100.00
7407;BME280;3745;56.964;24.128;2023-04-05T12:35:58;102149.53;;;6.09;100.00
7407;BME280;3745;56.964;24.128;2023-04-05T12:38:25;102095.59;;;6.19;100.00
7407;BME280;3745;56.964;24.128;2023-04-05T12:40:56;102137.81;;;6.57;100.00
7407;BME280;3745;56.964;24.128;2023-04-05T12:43:23;102039.84;;;6.10;100.00
7407;BME280;3745;56.964;24.128;2023-04-05T12:45:52;102140.53;;;6.77;100.00
7407;BME280;3745;56.964;24.128;2023-04-05T12:48:21;102119.16;;;6.85;100.00
7407;BME280;3745;56.964;24.128;2023-04-05T12:50:48;102140.69;;;6.80;100.00
7407;BME280;3745;56.964;24.128;2023-04-05T12:53:20;102117.47;;;6.36;100.00
7407;BME280;3745;56.964;24.128;2023-04-05T12:55:54;102149.84;;;6.30;100.00
7407;BME280;3745;56.964;24.128;2023-04-05T12:58:21;102096.31;;;6.16;100.00
7407;BME280;3745;56.964;24.128;2023-04-05T13:00:47;102113.28;;;6.52;100.00
7407;BME280;3745;56.964;24.128;2023-04-05T13:03:17;102106.53;;;6.51;100.00
7407;BME280;3745;56.964;24.128;2023-04-05T13:05:45;102151.34;;;6.92;100.00
7407;BME280;3745;56.964;24.128;2023-04-05T13:08:11;102088.69;;;6.47;100.00
7407;BME280;3745;56.964;24.128;2023-04-05T13:10:37;102071.25;;;6.34;100.00
7407;BME280;3745;56.964;24.128;2023-04-05T13:13:03;102148.22;;;6.96;100.00
7407;BME280;3745;56.964;24.128;2023-04-05T13:15:28;102066.47;;;6.54;100.00
7407;BME280;3745;56.964;24.128;2023-04-05T13:17:54;102124.97;;;6.68;100.00
7407;BME280;3745;56.964;24.128;2023-04-05T13:20:20;102142.78;;;6.55;100.00
7407;BME280;3745;56.964;24.128;2023-04-05T13:22:46;102083.59;;;6.29;100.00
7407;BME280;3745;56.964;24.128;2023-04-05T13:25:15;102113.69;;;6.44;100.00
7407;BME280;3745;56.964;24.128;2023-04-05T13:27:41;102143.41;;;6.67;100.00